createdAt,value
2022-10-03T00:01:26.840Z,0.63
2022-10-03T00:04:19.956Z,0.63
2022-10-03T00:07:14.060Z,0.70
2022-10-03T00:10:08.806Z,0.60
2022-10-03T00:12:38.619Z,0.80
2022-10-03T00:15:49.992Z,1.10
2022-10-03T00:18:52.759Z,1.10
2022-10-03T00:21:42.794Z,1.30
2022-10-03T00:24:30.968Z,1.50
2022-10-03T00:27:03.846Z,1.50
2022-10-03T00:29:37.368Z,2.00
2022-10-03T00:32:22.363Z,2.23
2022-10-03T00:35:13.906Z,2.50
2022-10-03T00:37:56.616Z,2.57
2022-10-03T00:40:53.619Z,2.73
2022-10-03T00:43:52.656Z,2.47
2022-10-03T00:46:37.650Z,3.27
2022-10-03T00:49:26.587Z,3.40
2022-10-03T00:52:02.750Z,2.63
2022-10-03T00:54:45.148Z,3.07
2022-10-03T00:57:36.729Z,3.93
2022-10-03T01:00:15.220Z,3.93
2022-10-03T01:03:19.484Z,4.40
2022-10-03T01:05:52.137Z,4.70
2022-10-03T01:08:33.685Z,4.03
2022-10-03T01:11:21.457Z,3.93
2022-10-03T01:14:19.540Z,3.80
2022-10-03T01:17:17.882Z,3.63
2022-10-03T01:20:14.455Z,4.20
2022-10-03T01:23:20.229Z,4.20
2022-10-03T01:26:05.248Z,4.87
2022-10-03T01:29:10.589Z,5.27
2022-10-03T01:31:50.433Z,4.90
2022-10-03T01:34:44.395Z,5.27
2022-10-03T01:37:23.976Z,5.20
2022-10-03T01:39:57.228Z,5.77
2022-10-03T01:42:53.074Z,7.03
2022-10-03T01:45:38.035Z,6.80
2022-10-03T01:48:12.856Z,7.07
2022-10-03T01:50:54.756Z,7.87
2022-10-03T01:53:54.264Z,8.37
2022-10-03T01:56:40.919Z,9.57
2022-10-03T01:59:18.453Z,8.33
2022-10-03T02:01:56.022Z,8.67
2022-10-03T02:04:36.810Z,9.60
2022-10-03T02:07:22.431Z,10.30
2022-10-03T02:10:19.482Z,9.20
2022-10-03T02:13:12.258Z,9.80
2022-10-03T02:15:47.941Z,9.60
2022-10-03T02:18:36.894Z,10.80
2022-10-03T02:21:21.037Z,10.83
2022-10-03T02:24:03.723Z,10.70
2022-10-03T02:26:58.436Z,11.10
2022-10-03T02:29:46.814Z,11.13
2022-10-03T02:32:28.738Z,10.20
2022-10-03T02:35:07.918Z,10.57
2022-10-03T02:37:37.570Z,10.70
2022-10-03T02:40:31.546Z,10.57
2022-10-03T02:43:16.990Z,9.57
2022-10-03T02:46:02.239Z,10.63
2022-10-03T02:48:56.364Z,9.83
2022-10-03T02:51:44.936Z,10.27
2022-10-03T02:54:17.641Z,9.57
2022-10-03T02:57:07.329Z,8.90
2022-10-03T02:59:41.699Z,9.27
2022-10-03T03:02:26.772Z,8.90
2022-10-03T03:05:18.050Z,9.10
2022-10-03T03:07:58.901Z,9.00
2022-10-03T03:10:53.193Z,8.97
2022-10-03T03:13:38.190Z,9.33
2022-10-03T03:16:10.711Z,8.87
2022-10-03T03:19:19.185Z,8.87
2022-10-03T03:22:04.408Z,8.80
2022-10-03T03:24:49.586Z,8.73
2022-10-03T03:27:19.299Z,9.00
2022-10-03T03:30:09.033Z,9.13
2022-10-03T03:32:54.414Z,10.00
2022-10-03T03:35:29.814Z,10.83
2022-10-03T03:38:09.398Z,10.80
2022-10-03T03:41:21.172Z,10.43
2022-10-03T03:44:13.545Z,11.60
2022-10-03T03:46:58.805Z,10.93
2022-10-03T03:49:42.111Z,10.77
2022-10-03T03:52:35.559Z,11.23
2022-10-03T03:55:32.630Z,11.10
2022-10-03T03:58:26.890Z,11.53
2022-10-03T04:01:15.032Z,11.80
2022-10-03T04:04:21.332Z,11.47
2022-10-03T04:07:18.333Z,11.63
2022-10-03T04:10:09.316Z,11.97
2022-10-03T04:13:10.078Z,10.67
2022-10-03T04:15:59.782Z,11.43
2022-10-03T04:18:58.531Z,11.00
2022-10-03T04:21:31.185Z,11.20
2022-10-03T04:24:20.888Z,11.50
2022-10-03T04:27:17.894Z,10.83
2022-10-03T04:30:17.896Z,10.43
2022-10-03T04:32:51.004Z,9.47
2022-10-03T04:35:38.510Z,9.57
2022-10-03T04:38:46.478Z,9.97
2022-10-03T04:41:45.288Z,9.57
2022-10-03T04:44:21.691Z,10.20
2022-10-03T04:47:06.568Z,8.43
2022-10-03T04:49:48.175Z,10.10
2022-10-03T04:52:35.504Z,10.17
2022-10-03T04:55:18.643Z,9.50
2022-10-03T04:58:04.731Z,10.50
2022-10-03T05:00:50.420Z,9.27
2022-10-03T05:03:54.551Z,9.33
2022-10-03T05:06:33.547Z,9.73
2022-10-03T05:09:23.196Z,9.53
2022-10-03T05:11:59.679Z,10.63
2022-10-03T05:14:29.975Z,8.77
2022-10-03T05:17:12.452Z,8.60
2022-10-03T05:19:48.656Z,7.67
2022-10-03T05:22:42.982Z,7.70
2022-10-03T05:25:53.577Z,7.13
2022-10-03T05:28:34.575Z,8.50
2022-10-03T05:31:27.717Z,7.50
2022-10-03T05:34:18.534Z,6.90
2022-10-03T05:37:07.787Z,7.77
2022-10-03T05:40:00.446Z,7.80
2022-10-03T05:42:46.377Z,7.77
2022-10-03T05:45:13.018Z,7.77
2022-10-03T05:48:07.591Z,7.67
2022-10-03T05:50:58.018Z,8.50
2022-10-03T05:53:57.026Z,7.53
2022-10-03T05:56:51.758Z,7.37
2022-10-03T05:59:30.741Z,8.33
2022-10-03T06:02:03.985Z,8.60
2022-10-03T06:04:41.157Z,7.87
2022-10-03T06:07:25.945Z,8.40
2022-10-03T06:10:17.924Z,7.70
2022-10-03T06:13:02.924Z,7.87
2022-10-03T06:15:54.707Z,7.30
2022-10-03T06:18:59.723Z,9.13
2022-10-03T06:21:59.817Z,8.73
2022-10-03T06:24:29.255Z,8.70
2022-10-03T06:27:35.186Z,8.90
2022-10-03T06:30:14.942Z,8.20
2022-10-03T06:33:19.272Z,8.50
2022-10-03T06:36:21.075Z,8.17
2022-10-03T06:39:12.451Z,7.67
2022-10-03T06:42:07.847Z,8.73
2022-10-03T06:44:57.681Z,8.70
2022-10-03T06:47:36.221Z,7.93
2022-10-03T06:50:22.124Z,7.17
2022-10-03T06:53:03.201Z,6.93
2022-10-03T06:56:08.499Z,7.57
2022-10-03T06:59:07.495Z,6.57
2022-10-03T07:01:46.401Z,7.10
2022-10-03T07:04:18.796Z,7.00
2022-10-03T07:07:23.514Z,7.23
2022-10-03T07:10:24.465Z,6.10
2022-10-03T07:13:07.396Z,6.13
2022-10-03T07:19:01.778Z,5.40
2022-10-03T07:21:50.599Z,5.00
2022-10-03T07:24:32.557Z,5.37
2022-10-03T07:27:36.553Z,5.47
2022-10-03T07:30:23.424Z,4.63
2022-10-03T07:33:27.731Z,5.07
2022-10-03T07:36:47.136Z,5.03
2022-10-03T07:39:44.927Z,4.50
2022-10-03T07:42:21.219Z,4.47
2022-10-03T07:45:08.521Z,4.53
2022-10-03T07:48:13.735Z,5.30
2022-10-03T07:50:51.360Z,5.20
2022-10-03T07:53:49.407Z,4.43
2022-10-03T07:56:29.791Z,3.97
2022-10-03T07:59:24.579Z,4.13
2022-10-03T08:02:13.925Z,3.47
2022-10-03T08:05:18.126Z,3.90
2022-10-03T08:08:00.723Z,3.08
2022-10-03T08:10:51.345Z,2.95
2022-10-03T08:13:52.068Z,2.88
2022-10-03T08:16:45.813Z,3.60
2022-10-03T08:19:49.174Z,2.90
2022-10-03T08:22:32.916Z,2.75
2022-10-03T08:25:21.481Z,2.22
2022-10-03T08:27:54.063Z,2.53
2022-10-03T08:30:22.703Z,2.78
2022-10-03T08:32:58.397Z,2.47
2022-10-03T08:35:43.361Z,2.60
2022-10-03T08:38:13.264Z,2.25
2022-10-03T08:40:57.267Z,2.40
2022-10-03T08:43:54.707Z,2.35
2022-10-03T08:50:16.987Z,2.25
2022-10-03T08:53:25.965Z,2.78
2022-10-03T08:56:06.144Z,2.63
2022-10-03T08:58:59.351Z,2.05
2022-10-03T09:01:35.229Z,2.10
2022-10-03T09:04:36.282Z,2.50
2022-10-03T09:07:22.347Z,2.53
2022-10-03T09:10:14.423Z,1.80
2022-10-03T09:13:18.597Z,2.00
2022-10-03T09:16:03.652Z,2.22
2022-10-03T09:19:02.931Z,2.05
2022-10-03T09:21:54.008Z,1.95
2022-10-03T09:24:44.754Z,1.75
2022-10-03T09:27:38.070Z,2.45
2022-10-03T09:30:18.106Z,1.88
2022-10-03T09:33:32.792Z,2.00
2022-10-03T09:36:08.362Z,1.80
2022-10-03T09:38:46.105Z,2.15
2022-10-03T09:41:57.977Z,1.85
2022-10-03T09:44:44.075Z,1.73
2022-10-03T09:47:59.122Z,1.65
2022-10-03T09:50:54.289Z,1.77
2022-10-03T09:53:31.749Z,1.58
2022-10-03T09:56:07.574Z,2.05
2022-10-03T09:59:05.475Z,1.40
2022-10-03T10:01:53.625Z,1.50
2022-10-03T10:04:54.753Z,2.15
2022-10-03T10:07:56.310Z,2.28
2022-10-03T10:10:28.870Z,1.77
2022-10-03T10:13:01.711Z,1.85
2022-10-03T10:15:31.483Z,1.77
2022-10-03T10:18:23.392Z,2.00
2022-10-03T10:21:25.511Z,1.80
2022-10-03T10:24:18.394Z,1.25
2022-10-03T10:26:47.909Z,1.63
2022-10-03T10:29:26.924Z,1.42
2022-10-03T10:32:20.463Z,1.50
2022-10-03T10:35:28.897Z,1.77
2022-10-03T10:38:26.066Z,1.80
2022-10-03T10:41:11.403Z,1.92
2022-10-03T10:44:23.795Z,1.73
2022-10-03T10:47:09.227Z,1.88
2022-10-03T10:49:50.876Z,2.15
2022-10-03T10:52:46.975Z,2.08
2022-10-03T10:56:01.635Z,2.42
2022-10-03T10:59:25.346Z,2.60
2022-10-03T11:02:10.439Z,2.03
2022-10-03T11:05:10.972Z,2.10
2022-10-03T11:07:54.183Z,2.47
2022-10-03T11:10:39.634Z,2.20
2022-10-03T11:13:28.024Z,3.17
2022-10-03T11:15:59.136Z,2.20
2022-10-03T11:19:06.316Z,2.40
2022-10-03T11:22:05.840Z,2.05
2022-10-03T11:24:57.455Z,2.60
2022-10-03T11:27:32.973Z,2.50
2022-10-03T11:30:37.580Z,2.00
2022-10-03T11:33:24.524Z,1.52
2022-10-03T11:36:11.126Z,1.60
2022-10-03T11:39:05.495Z,1.40
2022-10-03T11:42:10.843Z,1.67
2022-10-03T11:44:50.355Z,1.70
2022-10-03T11:47:58.307Z,1.40
2022-10-03T11:50:33.151Z,1.50
2022-10-03T11:53:21.450Z,1.52
2022-10-03T11:55:55.326Z,1.42
2022-10-03T11:58:52.730Z,1.65
2022-10-03T12:01:32.396Z,2.65
2022-10-03T12:04:17.711Z,2.65
2022-10-03T12:07:36.769Z,2.60
2022-10-03T12:10:19.303Z,2.70
2022-10-03T12:12:51.999Z,3.03
2022-10-03T12:15:27.811Z,3.17
2022-10-03T12:18:34.744Z,2.95
2022-10-03T12:21:07.847Z,2.47
2022-10-03T12:23:54.683Z,2.90
2022-10-03T12:26:53.322Z,2.80
2022-10-03T12:29:25.163Z,3.05
2022-10-03T12:32:13.715Z,3.08
2022-10-03T12:34:43.496Z,2.55
2022-10-03T12:37:36.406Z,3.00
2022-10-03T12:40:06.407Z,2.45
2022-10-03T12:43:04.217Z,2.60
2022-10-03T12:45:37.630Z,2.40
2022-10-03T12:48:19.957Z,1.88
2022-10-03T12:51:04.220Z,2.35
2022-10-03T12:54:16.338Z,1.90
2022-10-03T12:57:10.887Z,2.17
2022-10-03T12:59:47.432Z,2.40
2022-10-03T13:02:20.111Z,2.42
2022-10-03T13:05:17.673Z,2.00
2022-10-03T13:08:00.619Z,2.10
2022-10-03T13:10:47.767Z,1.75
2022-10-03T13:13:23.577Z,1.63
2022-10-03T13:16:04.192Z,1.58
2022-10-03T13:19:07.827Z,1.65
2022-10-03T13:21:46.027Z,1.80
2022-10-03T13:24:45.674Z,1.77
2022-10-03T13:27:29.170Z,1.83
2022-10-03T13:29:58.693Z,1.73
2022-10-03T13:32:43.015Z,1.60
2022-10-03T13:35:53.975Z,1.77
2022-10-03T13:38:20.807Z,1.55
2022-10-03T13:41:15.368Z,1.65
2022-10-03T13:43:50.135Z,1.77
2022-10-03T13:46:27.034Z,1.80
2022-10-03T13:49:02.162Z,1.50
2022-10-03T13:51:47.601Z,1.60
2022-10-03T13:54:26.444Z,2.05
2022-10-03T13:57:20.393Z,1.80
2022-10-03T13:59:53.069Z,1.67
2022-10-03T14:02:43.068Z,1.90
2022-10-03T14:05:47.282Z,1.80
2022-10-03T14:08:33.070Z,2.38
2022-10-03T14:11:24.120Z,1.67
2022-10-03T14:14:34.723Z,1.70
2022-10-03T14:17:26.094Z,1.58
2022-10-03T14:20:25.318Z,1.60
2022-10-03T14:23:13.001Z,2.00
2022-10-03T14:25:48.397Z,1.80
2022-10-03T14:28:27.598Z,1.67
2022-10-03T14:31:14.752Z,1.58
2022-10-03T14:34:03.255Z,1.67
2022-10-03T14:36:43.168Z,1.55
2022-10-03T14:39:32.505Z,1.50
2022-10-03T14:42:32.488Z,1.42
2022-10-03T14:45:08.603Z,1.40
2022-10-03T14:47:40.558Z,1.52
2022-10-03T14:50:17.503Z,1.60
2022-10-03T14:52:50.582Z,1.38
2022-10-03T14:55:30.357Z,1.95
2022-10-03T14:58:10.784Z,2.33
2022-10-03T15:00:52.848Z,1.85
2022-10-03T15:03:23.882Z,2.30
2022-10-03T15:06:01.726Z,1.73
2022-10-03T15:08:43.073Z,1.60
2022-10-03T15:11:13.165Z,2.15
2022-10-03T15:13:49.051Z,1.95
2022-10-03T15:16:19.358Z,2.15
2022-10-03T15:18:53.996Z,2.50
2022-10-03T15:21:21.327Z,2.30
2022-10-03T15:23:56.118Z,2.22
2022-10-03T15:26:26.152Z,2.00
2022-10-03T15:29:03.895Z,2.30
2022-10-03T15:31:31.610Z,12.20
2022-10-03T15:34:01.063Z,4.30
2022-10-03T15:36:40.220Z,3.97
2022-10-03T15:39:18.748Z,5.13
2022-10-03T15:42:10.281Z,4.55
2022-10-03T15:44:39.709Z,4.80
2022-10-03T15:47:21.650Z,6.70
2022-10-03T15:50:02.801Z,6.88
2022-10-03T15:52:43.593Z,5.05
2022-10-03T15:55:29.695Z,4.65
2022-10-03T15:58:15.527Z,3.50
2022-10-03T16:00:43.869Z,3.08
2022-10-03T16:03:15.317Z,4.40
2022-10-03T16:05:57.632Z,4.07
2022-10-03T16:08:33.142Z,3.70
2022-10-03T16:11:09.589Z,3.13
2022-10-03T16:13:49.069Z,2.90
2022-10-03T16:16:19.324Z,3.13
2022-10-03T16:19:04.221Z,5.93
2022-10-03T16:22:07.806Z,5.97
2022-10-03T16:24:49.550Z,4.37
2022-10-03T16:27:21.489Z,3.17
2022-10-03T16:30:09.835Z,4.10
2022-10-03T16:32:59.389Z,3.53
2022-10-03T16:35:34.795Z,3.80
2022-10-03T16:38:06.378Z,3.77
2022-10-03T16:40:37.933Z,3.60
2022-10-03T16:43:10.909Z,3.27
2022-10-03T16:45:45.978Z,3.47
2022-10-03T16:48:53.217Z,3.00
2022-10-03T16:51:21.630Z,3.17
2022-10-03T16:53:52.396Z,3.03
2022-10-03T16:56:27.462Z,3.23
2022-10-03T16:58:56.408Z,3.67
2022-10-03T17:01:40.218Z,3.43
2022-10-03T17:04:22.886Z,3.13
2022-10-03T17:06:53.338Z,3.30
2022-10-03T17:09:34.934Z,3.10
2022-10-03T17:12:04.461Z,2.90
2022-10-03T17:14:37.063Z,3.10
2022-10-03T17:17:46.146Z,3.20
2022-10-03T17:20:17.944Z,3.97
2022-10-03T17:22:54.451Z,3.20
2022-10-03T17:25:36.747Z,3.20
2022-10-03T17:28:14.963Z,3.30
2022-10-03T17:30:55.103Z,3.40
2022-10-03T17:33:46.471Z,3.03
2022-10-03T17:36:13.122Z,3.60
2022-10-03T17:38:50.192Z,3.73
2022-10-03T17:41:27.940Z,3.93
2022-10-03T17:44:00.682Z,4.20
2022-10-03T17:46:52.780Z,4.03
2022-10-03T17:49:28.319Z,3.77
2022-10-03T17:51:56.435Z,3.27
2022-10-03T17:54:34.045Z,3.60
2022-10-03T17:57:07.337Z,3.50
2022-10-03T17:59:46.809Z,3.30
2022-10-03T18:02:40.718Z,3.97
2022-10-03T18:05:16.800Z,3.67
2022-10-03T18:07:44.839Z,3.67
2022-10-03T18:10:24.006Z,3.57
2022-10-03T18:12:54.874Z,3.13
2022-10-03T18:15:42.659Z,3.43
2022-10-03T18:19:03.887Z,3.63
2022-10-03T18:21:35.562Z,3.43
2022-10-03T18:24:50.339Z,3.73
2022-10-03T18:27:38.508Z,3.77
2022-10-03T18:30:14.667Z,4.30
2022-10-03T18:32:43.898Z,3.93
2022-10-03T18:35:12.973Z,2.87
2022-10-03T18:37:40.012Z,3.57
2022-10-03T18:40:28.577Z,3.70
2022-10-03T18:42:56.030Z,3.93
2022-10-03T18:45:43.786Z,4.00
2022-10-03T18:48:18.263Z,4.00
2022-10-03T18:50:53.323Z,3.83
2022-10-03T18:53:38.601Z,4.10
2022-10-03T18:56:17.296Z,3.57
2022-10-03T18:58:57.006Z,3.63
2022-10-03T19:01:52.592Z,3.70
2022-10-03T19:04:30.322Z,3.53
2022-10-03T19:06:59.011Z,3.80
2022-10-03T19:10:05.366Z,4.20
2022-10-03T19:12:35.772Z,3.50
2022-10-03T19:15:19.322Z,3.47
2022-10-03T19:18:23.581Z,3.73
2022-10-03T19:20:57.199Z,3.63
2022-10-03T19:23:31.020Z,3.97
2022-10-03T19:26:02.746Z,4.73
2022-10-03T19:28:37.629Z,4.60
2022-10-03T19:31:25.391Z,3.83
2022-10-03T19:33:58.456Z,3.70
2022-10-03T19:36:34.798Z,4.20
2022-10-03T19:39:02.533Z,4.27
2022-10-03T19:41:32.511Z,3.90
2022-10-03T19:44:23.626Z,4.70
2022-10-03T19:47:12.502Z,4.17
2022-10-03T19:49:45.695Z,4.13
2022-10-03T19:52:30.867Z,3.90
2022-10-03T19:55:12.473Z,4.10
2022-10-03T19:57:43.876Z,4.77
2022-10-03T20:00:20.798Z,4.63
2022-10-03T20:03:21.682Z,4.17
2022-10-03T20:06:07.623Z,4.73
2022-10-03T20:08:57.880Z,5.77
2022-10-03T20:11:43.201Z,4.53
2022-10-03T20:14:23.660Z,4.47
2022-10-03T20:16:52.417Z,4.57
2022-10-03T20:19:36.183Z,4.03
2022-10-03T20:22:06.020Z,4.10
2022-10-03T20:24:41.755Z,3.80
2022-10-03T20:27:15.624Z,4.30
2022-10-03T20:30:06.632Z,4.57
2022-10-03T20:32:37.305Z,4.53
2022-10-03T20:35:05.175Z,4.10
2022-10-03T20:37:34.957Z,4.60
2022-10-03T20:40:20.394Z,4.27
2022-10-03T20:42:50.178Z,3.97
2022-10-03T20:45:28.274Z,4.60
2022-10-03T20:48:02.768Z,4.40
2022-10-03T20:50:29.859Z,4.17
2022-10-03T20:53:00.994Z,4.80
2022-10-03T20:55:37.958Z,4.83
2022-10-03T20:58:09.819Z,4.63
2022-10-03T21:00:46.204Z,4.33
2022-10-03T21:03:43.252Z,4.60
2022-10-03T21:06:33.395Z,4.30
2022-10-03T21:09:05.302Z,5.00
2022-10-03T21:11:37.603Z,4.53
2022-10-03T21:14:23.488Z,4.93
2022-10-03T21:16:52.310Z,5.47
2022-10-03T21:19:46.071Z,4.97
2022-10-03T21:22:18.866Z,4.63
2022-10-03T21:25:02.247Z,4.87
2022-10-03T21:27:31.334Z,4.97
2022-10-03T21:30:21.696Z,4.90
2022-10-03T21:33:07.538Z,4.43
2022-10-03T21:35:37.518Z,4.10
2022-10-03T21:38:10.774Z,4.50
2022-10-03T21:41:03.688Z,4.80
2022-10-03T21:43:57.109Z,4.50
2022-10-03T21:46:57.048Z,4.30
2022-10-03T21:49:55.027Z,4.20
2022-10-03T21:52:40.477Z,4.63
2022-10-03T21:55:16.412Z,4.13
2022-10-03T21:57:56.171Z,4.47
2022-10-03T22:00:28.694Z,4.80
2022-10-03T22:03:29.881Z,4.20
2022-10-03T22:06:25.642Z,4.90
2022-10-03T22:08:53.534Z,4.47
2022-10-03T22:11:44.998Z,4.70
2022-10-03T22:14:49.885Z,4.00
2022-10-03T22:17:53.999Z,4.23
2022-10-03T22:20:23.311Z,4.33
2022-10-03T22:23:24.319Z,5.00
2022-10-03T22:26:15.043Z,4.53
2022-10-03T22:28:44.395Z,4.90
2022-10-03T22:31:26.427Z,4.83
2022-10-03T22:34:15.041Z,4.50
2022-10-03T22:36:42.927Z,5.27
2022-10-03T22:39:15.973Z,4.23
2022-10-03T22:41:46.318Z,3.97
2022-10-03T22:44:16.508Z,4.00
2022-10-03T22:46:50.144Z,4.57
2022-10-03T22:49:22.284Z,4.77
2022-10-03T22:51:53.396Z,5.57
2022-10-03T22:54:20.337Z,4.53
2022-10-03T22:56:55.214Z,4.03
2022-10-03T22:59:27.216Z,4.43
2022-10-03T23:01:56.654Z,5.13
2022-10-03T23:04:37.222Z,4.70
2022-10-03T23:07:26.464Z,4.23
2022-10-03T23:10:01.622Z,4.10
2022-10-03T23:12:37.276Z,3.60
2022-10-03T23:15:07.483Z,3.70
2022-10-03T23:17:40.166Z,3.77
2022-10-03T23:20:38.980Z,3.93
2022-10-03T23:23:19.030Z,3.80
2022-10-03T23:25:45.702Z,4.50
2022-10-03T23:28:33.058Z,4.40
2022-10-03T23:31:00.094Z,4.77
2022-10-03T23:33:33.107Z,5.30
2022-10-03T23:36:06.176Z,4.93
2022-10-03T23:38:36.569Z,4.57
2022-10-03T23:41:08.041Z,4.07
2022-10-03T23:43:55.277Z,4.83
2022-10-03T23:46:25.080Z,4.87
2022-10-03T23:48:58.357Z,4.53
2022-10-03T23:51:37.673Z,4.50
2022-10-03T23:54:08.320Z,4.33
2022-10-03T23:56:39.905Z,4.00
2022-10-03T23:59:14.786Z,3.97
